createdAt,value
2023-10-06T00:01:13.937Z,81.80
2023-10-06T00:03:45.922Z,81.19
2023-10-06T00:06:23.545Z,81.43
2023-10-06T00:08:55.604Z,81.33
2023-10-06T00:11:32.711Z,81.32
2023-10-06T00:14:04.476Z,81.24
2023-10-06T00:16:40.458Z,81.14
2023-10-06T00:19:23.993Z,81.08
2023-10-06T00:22:02.304Z,81.58
2023-10-06T00:24:30.197Z,81.46
2023-10-06T00:26:58.816Z,81.18
2023-10-06T00:29:30.672Z,81.48
2023-10-06T00:32:04.810Z,81.37
2023-10-06T00:34:35.416Z,80.49
2023-10-06T00:37:13.015Z,80.89
2023-10-06T00:39:40.878Z,80.79
2023-10-06T00:42:08.904Z,81.19
2023-10-06T00:44:37.129Z,81.16
2023-10-06T00:47:07.469Z,81.41
2023-10-06T00:49:35.870Z,80.69
2023-10-06T00:52:07.967Z,80.80
2023-10-06T00:54:36.190Z,81.27
2023-10-06T00:57:09.997Z,81.12
2023-10-06T00:59:38.242Z,81.13
2023-10-06T01:02:10.338Z,80.93
2023-10-06T01:04:44.050Z,80.87
2023-10-06T01:07:15.038Z,80.75
2023-10-06T01:09:58.197Z,80.98
2023-10-06T01:12:27.339Z,80.86
2023-10-06T01:15:07.053Z,81.13
2023-10-06T01:17:35.461Z,81.29
2023-10-06T01:20:04.501Z,81.24
2023-10-06T01:22:42.784Z,81.15
2023-10-06T01:25:14.519Z,80.83
2023-10-06T01:27:45.011Z,81.19
2023-10-06T01:30:20.507Z,81.04
2023-10-06T01:32:52.200Z,80.79
2023-10-06T01:35:22.462Z,80.91
2023-10-06T01:37:59.561Z,80.43
2023-10-06T01:40:44.883Z,80.60
2023-10-06T01:43:16.407Z,80.00
2023-10-06T01:45:46.206Z,80.39
2023-10-06T01:48:28.133Z,80.13
2023-10-06T01:50:56.460Z,80.27
2023-10-06T01:53:26.635Z,80.32
2023-10-06T01:55:55.904Z,80.56
2023-10-06T01:58:23.946Z,80.08
2023-10-06T02:00:52.114Z,80.69
2023-10-06T02:03:23.194Z,80.66
2023-10-06T02:05:56.128Z,80.89
2023-10-06T02:08:26.448Z,81.13
2023-10-06T02:10:56.517Z,80.47
2023-10-06T02:13:24.801Z,80.46
2023-10-06T02:16:00.602Z,80.55
2023-10-06T02:18:37.052Z,80.32
2023-10-06T02:21:11.896Z,80.56
2023-10-06T02:23:42.699Z,80.63
2023-10-06T02:26:13.618Z,81.14
2023-10-06T02:28:45.364Z,80.53
2023-10-06T02:31:13.954Z,80.35
2023-10-06T02:33:42.751Z,80.28
2023-10-06T02:36:19.297Z,80.26
2023-10-06T02:38:49.533Z,79.80
2023-10-06T02:41:22.012Z,80.22
2023-10-06T02:43:50.882Z,80.43
2023-10-06T02:46:22.701Z,80.47
2023-10-06T02:48:51.286Z,79.88
2023-10-06T02:51:30.277Z,79.99
2023-10-06T02:54:14.966Z,80.02
2023-10-06T02:56:44.916Z,79.90
2023-10-06T02:59:23.329Z,79.68
2023-10-06T03:01:56.848Z,79.84
2023-10-06T03:04:27.969Z,80.06
2023-10-06T03:06:58.362Z,80.03
2023-10-06T03:09:38.352Z,80.00
2023-10-06T03:12:13.149Z,80.10
2023-10-06T03:14:41.181Z,80.26
2023-10-06T03:17:10.488Z,80.45
2023-10-06T03:19:42.158Z,80.73
2023-10-06T03:22:13.715Z,80.76
2023-10-06T03:24:54.382Z,80.64
2023-10-06T03:27:24.834Z,81.04
2023-10-06T03:29:55.632Z,81.28
2023-10-06T03:32:34.045Z,81.19
2023-10-06T03:35:13.081Z,81.23
2023-10-06T03:37:46.394Z,80.93
2023-10-06T03:40:23.692Z,80.60
2023-10-06T03:42:54.001Z,80.81
2023-10-06T03:45:28.537Z,80.88
2023-10-06T03:48:09.807Z,80.78
2023-10-06T03:50:43.385Z,80.72
2023-10-06T03:53:14.473Z,80.38
2023-10-06T03:55:46.642Z,80.40
2023-10-06T03:58:17.767Z,80.72
2023-10-06T04:00:49.824Z,80.77
2023-10-06T04:03:19.199Z,80.61
2023-10-06T04:05:49.788Z,80.84
2023-10-06T04:08:20.363Z,80.89
2023-10-06T04:10:53.190Z,80.93
2023-10-06T04:13:22.379Z,81.21
2023-10-06T04:15:51.991Z,81.81
2023-10-06T04:18:23.396Z,81.16
2023-10-06T04:20:52.473Z,81.95
2023-10-06T04:23:24.184Z,81.82
2023-10-06T04:25:57.788Z,81.49
2023-10-06T04:28:27.627Z,81.75
2023-10-06T04:30:59.338Z,82.10
2023-10-06T04:33:29.739Z,82.11
2023-10-06T04:36:01.191Z,82.02
2023-10-06T04:38:30.846Z,82.18
2023-10-06T04:41:01.098Z,82.52
2023-10-06T04:43:29.132Z,82.69
2023-10-06T04:45:57.516Z,82.76
2023-10-06T04:48:25.620Z,82.24
2023-10-06T04:50:53.592Z,82.49
2023-10-06T04:53:22.161Z,82.48
2023-10-06T04:55:49.998Z,82.25
2023-10-06T04:58:19.923Z,82.24
2023-10-06T05:00:54.347Z,82.50
2023-10-06T05:03:22.482Z,83.08
2023-10-06T05:05:52.063Z,83.21
2023-10-06T05:08:20.104Z,83.18
2023-10-06T05:10:48.206Z,83.13
2023-10-06T05:13:17.715Z,83.05
2023-10-06T05:15:47.241Z,82.93
2023-10-06T05:18:17.369Z,82.82
2023-10-06T05:20:47.720Z,82.98
2023-10-06T05:23:16.827Z,83.12
2023-10-06T05:25:47.003Z,82.98
2023-10-06T05:28:18.281Z,83.06
2023-10-06T05:30:47.900Z,82.68
2023-10-06T05:33:16.570Z,82.72
2023-10-06T05:35:46.845Z,82.30
2023-10-06T05:38:15.540Z,82.57
2023-10-06T05:40:45.072Z,82.92
2023-10-06T05:43:14.188Z,82.10
2023-10-06T05:45:43.037Z,82.51
2023-10-06T05:48:13.593Z,82.38
2023-10-06T05:50:42.639Z,82.23
2023-10-06T05:53:13.986Z,82.68
2023-10-06T05:55:43.711Z,82.40
2023-10-06T05:58:15.663Z,82.51
2023-10-06T06:00:52.293Z,83.08
2023-10-06T06:03:22.961Z,83.06
2023-10-06T06:05:51.394Z,83.50
2023-10-06T06:08:19.801Z,83.22
2023-10-06T06:10:48.013Z,83.23
2023-10-06T06:13:15.989Z,83.41
2023-10-06T06:15:43.862Z,82.82
2023-10-06T06:18:13.987Z,82.94
2023-10-06T06:20:43.664Z,82.50
2023-10-06T06:23:13.956Z,82.66
2023-10-06T06:25:43.252Z,82.71
2023-10-06T06:28:13.560Z,82.52
2023-10-06T06:30:42.443Z,82.75
2023-10-06T06:33:14.223Z,82.65
2023-10-06T06:35:44.344Z,82.90
2023-10-06T06:38:14.389Z,82.44
2023-10-06T06:40:43.119Z,82.56
2023-10-06T06:43:11.791Z,82.92
2023-10-06T06:45:42.211Z,82.39
2023-10-06T06:48:14.742Z,82.58
2023-10-06T06:50:45.149Z,82.89
2023-10-06T06:53:14.081Z,82.78
2023-10-06T06:55:44.793Z,83.26
2023-10-06T06:58:13.408Z,83.17
2023-10-06T07:00:42.167Z,83.52
2023-10-06T07:03:12.447Z,83.39
2023-10-06T07:05:41.176Z,83.64
2023-10-06T07:08:10.575Z,82.59
2023-10-06T07:10:40.601Z,82.86
2023-10-06T07:13:08.698Z,82.95
2023-10-06T07:15:36.676Z,82.85
2023-10-06T07:18:05.328Z,83.25
2023-10-06T07:20:34.131Z,83.37
2023-10-06T07:23:02.671Z,83.31
2023-10-06T07:25:32.581Z,83.29
2023-10-06T07:28:01.581Z,82.65
2023-10-06T07:30:30.612Z,83.42
2023-10-06T07:32:58.676Z,82.68
2023-10-06T07:35:32.275Z,82.74
2023-10-06T07:38:00.773Z,82.65
2023-10-06T07:40:29.113Z,82.87
2023-10-06T07:42:59.142Z,82.59
2023-10-06T07:45:28.157Z,82.36
2023-10-06T07:47:56.529Z,82.50
2023-10-06T07:50:27.741Z,82.38
2023-10-06T07:52:55.784Z,82.46
2023-10-06T07:55:24.419Z,82.26
2023-10-06T07:57:52.648Z,81.57
2023-10-06T08:00:28.998Z,82.00
2023-10-06T08:02:57.080Z,81.94
2023-10-06T08:05:27.047Z,81.79
2023-10-06T08:07:58.522Z,81.99
2023-10-06T08:10:26.882Z,81.74
2023-10-06T08:12:57.906Z,82.00
2023-10-06T08:15:28.979Z,81.63
2023-10-06T08:17:57.941Z,82.01
2023-10-06T08:20:27.162Z,81.49
2023-10-06T08:22:55.895Z,81.04
2023-10-06T08:25:25.301Z,80.85
2023-10-06T08:27:53.895Z,81.28
2023-10-06T08:30:22.694Z,80.20
2023-10-06T08:32:54.176Z,80.66
2023-10-06T08:35:23.053Z,80.50
2023-10-06T08:37:53.065Z,80.48
2023-10-06T08:40:24.552Z,79.80
2023-10-06T08:42:53.728Z,80.15
2023-10-06T08:45:25.482Z,80.08
2023-10-06T08:48:02.224Z,80.34
2023-10-06T08:50:32.871Z,80.49
2023-10-06T08:53:02.581Z,80.63
2023-10-06T08:55:30.971Z,80.48
2023-10-06T08:58:04.167Z,79.76
2023-10-06T09:00:35.988Z,80.36
2023-10-06T09:03:10.725Z,80.18
2023-10-06T09:05:41.099Z,79.47
2023-10-06T09:08:10.397Z,79.78
2023-10-06T09:10:41.781Z,79.92
2023-10-06T09:13:12.453Z,80.21
2023-10-06T09:15:42.568Z,80.15
2023-10-06T09:18:23.154Z,80.93
2023-10-06T09:20:52.356Z,81.38
2023-10-06T09:23:33.711Z,81.36
2023-10-06T09:26:02.698Z,81.49
2023-10-06T09:28:32.403Z,80.90
2023-10-06T09:31:02.748Z,80.74
2023-10-06T09:33:45.628Z,80.82
2023-10-06T09:36:32.156Z,80.72
2023-10-06T09:39:07.888Z,81.11
2023-10-06T09:41:37.751Z,80.55
2023-10-06T09:44:10.664Z,80.43
2023-10-06T09:46:42.976Z,79.99
2023-10-06T09:49:17.659Z,79.83
2023-10-06T09:51:47.192Z,80.08
2023-10-06T09:54:16.757Z,79.22
2023-10-06T09:56:44.827Z,79.09
2023-10-06T09:59:13.879Z,79.08
2023-10-06T10:01:43.758Z,78.81
2023-10-06T10:04:14.092Z,78.86
2023-10-06T10:06:45.244Z,78.47
2023-10-06T10:12:18.893Z,79.02
2023-10-06T10:15:02.078Z,78.70
2023-10-06T10:17:38.081Z,78.02
2023-10-06T10:20:11.020Z,78.52
2023-10-06T10:22:42.131Z,78.57
2023-10-06T10:27:41.712Z,77.47
2023-10-06T10:30:11.115Z,77.25
2023-10-06T10:32:44.023Z,76.41
2023-10-06T10:35:18.456Z,75.89
2023-10-06T10:38:04.302Z,75.39
2023-10-06T10:40:48.229Z,74.55
2023-10-06T10:43:17.674Z,74.68
2023-10-06T10:45:46.168Z,73.29
2023-10-06T10:48:16.356Z,73.42
2023-10-06T10:51:04.047Z,72.97
2023-10-06T10:53:34.809Z,72.79
2023-10-06T10:56:05.427Z,72.26
2023-10-06T10:58:58.759Z,70.05
2023-10-06T11:01:31.235Z,70.23
2023-10-06T11:04:23.004Z,70.09
2023-10-06T11:06:53.305Z,70.22
2023-10-06T11:09:28.010Z,70.93
2023-10-06T11:12:11.762Z,71.20
2023-10-06T11:14:47.255Z,71.29
2023-10-06T11:17:15.680Z,71.56
2023-10-06T11:19:43.653Z,70.58
2023-10-06T11:22:14.889Z,70.31
2023-10-06T11:24:45.618Z,68.91
2023-10-06T11:27:17.900Z,68.35
2023-10-06T11:29:47.421Z,68.08
2023-10-06T11:32:16.490Z,67.57
2023-10-06T11:34:45.872Z,67.84
2023-10-06T11:37:15.430Z,68.28
2023-10-06T11:39:44.193Z,67.43
2023-10-06T11:42:39.388Z,66.82
2023-10-06T11:45:13.019Z,66.95
2023-10-06T11:47:42.220Z,66.77
2023-10-06T11:50:23.948Z,65.53
2023-10-06T11:52:54.304Z,65.53
2023-10-06T11:55:32.679Z,65.19
2023-10-06T11:58:05.971Z,64.23
2023-10-06T12:00:41.789Z,63.58
2023-10-06T12:03:12.991Z,60.95
2023-10-06T12:05:43.621Z,61.13
2023-10-06T12:08:15.735Z,61.25
2023-10-06T12:10:51.777Z,61.20
2023-10-06T12:13:20.480Z,61.26
2023-10-06T12:15:48.871Z,61.11
2023-10-06T12:18:18.704Z,61.42
2023-10-06T12:20:46.645Z,61.82
2023-10-06T12:23:16.080Z,60.61
2023-10-06T12:25:44.080Z,60.75
2023-10-06T12:28:17.776Z,61.01
2023-10-06T12:30:46.024Z,60.62
2023-10-06T12:33:15.522Z,60.54
2023-10-06T12:35:44.096Z,60.36
2023-10-06T12:38:16.213Z,59.63
2023-10-06T12:40:48.235Z,59.15
2023-10-06T12:43:17.826Z,59.54
2023-10-06T12:45:45.793Z,59.94
2023-10-06T12:48:15.065Z,59.30
2023-10-06T12:50:43.785Z,59.04
2023-10-06T12:53:12.931Z,57.57
2023-10-06T12:55:44.304Z,56.87
2023-10-06T12:58:16.392Z,55.17
2023-10-06T13:00:45.245Z,55.11
2023-10-06T13:03:17.752Z,55.41
2023-10-06T13:05:46.787Z,54.93
2023-10-06T13:08:18.233Z,54.16
2023-10-06T13:10:48.366Z,54.86
2023-10-06T13:13:17.863Z,55.07
2023-10-06T13:15:47.487Z,54.65
2023-10-06T13:18:17.426Z,52.94
2023-10-06T13:20:45.430Z,52.36
2023-10-06T13:23:13.453Z,52.28
2023-10-06T13:25:42.840Z,52.48
2023-10-06T13:28:16.465Z,52.86
2023-10-06T13:30:45.639Z,52.80
2023-10-06T13:33:16.054Z,52.52
2023-10-06T13:35:45.130Z,52.93
2023-10-06T13:38:14.648Z,52.95
2023-10-06T13:40:46.298Z,52.59
2023-10-06T13:43:16.461Z,51.84
2023-10-06T13:45:46.592Z,51.34
2023-10-06T13:48:17.063Z,51.60
2023-10-06T13:50:47.248Z,51.66
2023-10-06T13:53:16.580Z,52.07
2023-10-06T13:55:45.926Z,51.19
2023-10-06T13:58:15.803Z,51.46
2023-10-06T14:00:43.878Z,51.26
2023-10-06T14:03:15.308Z,51.77
2023-10-06T14:05:44.990Z,52.03
2023-10-06T14:08:15.483Z,52.38
2023-10-06T14:10:44.119Z,51.90
2023-10-06T14:13:18.105Z,51.99
2023-10-06T14:15:50.819Z,52.64
2023-10-06T14:18:23.699Z,52.48
2023-10-06T14:20:52.053Z,52.09
2023-10-06T14:23:25.360Z,52.85
2023-10-06T14:25:57.440Z,52.33
2023-10-06T14:28:25.515Z,53.07
2023-10-06T14:30:57.439Z,53.27
2023-10-06T14:33:29.662Z,53.70
2023-10-06T14:39:08.906Z,54.13
2023-10-06T14:41:54.309Z,54.21
2023-10-06T14:44:39.940Z,54.50
2023-10-06T14:47:11.094Z,54.63
2023-10-06T14:49:44.382Z,54.78
2023-10-06T14:52:14.307Z,55.24
2023-10-06T14:54:45.088Z,55.36
2023-10-06T14:57:14.119Z,55.79
2023-10-06T14:59:44.246Z,56.13
2023-10-06T15:02:12.691Z,55.97
2023-10-06T15:04:41.518Z,56.62
2023-10-06T15:07:16.410Z,56.44
2023-10-06T15:09:45.713Z,56.59
2023-10-06T15:12:15.900Z,56.71
2023-10-06T15:14:45.817Z,57.00
2023-10-06T15:17:15.804Z,57.25
2023-10-06T15:19:47.697Z,57.46
2023-10-06T15:22:16.030Z,57.30
2023-10-06T15:24:45.510Z,57.64
2023-10-06T15:27:13.549Z,57.72
2023-10-06T15:29:42.972Z,57.72
2023-10-06T15:32:13.322Z,57.90
2023-10-06T15:34:41.737Z,57.86
2023-10-06T15:37:10.020Z,58.45
2023-10-06T15:39:37.869Z,58.41
2023-10-06T15:42:09.942Z,58.62
2023-10-06T15:44:38.902Z,58.76
2023-10-06T15:47:09.108Z,59.08
2023-10-06T15:49:38.930Z,58.99
2023-10-06T15:52:07.005Z,58.91
2023-10-06T15:54:34.947Z,59.18
2023-10-06T15:57:03.057Z,59.39
2023-10-06T15:59:32.469Z,59.78
2023-10-06T16:02:01.587Z,59.45
2023-10-06T16:04:29.541Z,59.86
2023-10-06T16:06:59.850Z,60.11
2023-10-06T16:09:28.002Z,60.10
2023-10-06T16:11:56.177Z,60.44
2023-10-06T16:14:24.233Z,60.50
2023-10-06T16:16:54.391Z,60.87
2023-10-06T16:19:23.082Z,60.74
2023-10-06T16:21:53.350Z,61.21
2023-10-06T16:24:21.494Z,61.26
2023-10-06T16:26:49.472Z,61.40
2023-10-06T16:29:17.840Z,61.67
2023-10-06T16:31:46.968Z,61.90
2023-10-06T16:34:16.466Z,61.78
2023-10-06T16:36:44.423Z,62.39
2023-10-06T16:39:22.657Z,62.35
2023-10-06T16:41:51.779Z,62.50
2023-10-06T16:44:22.232Z,62.27
2023-10-06T16:46:50.554Z,62.56
2023-10-06T16:49:19.966Z,62.71
2023-10-06T16:51:48.150Z,62.90
2023-10-06T16:54:16.671Z,62.81
2023-10-06T16:56:45.227Z,63.14
2023-10-06T16:59:14.573Z,62.79
2023-10-06T17:01:44.397Z,63.42
2023-10-06T17:04:16.147Z,63.26
2023-10-06T17:06:46.971Z,63.43
2023-10-06T17:09:18.259Z,63.14
2023-10-06T17:11:46.220Z,63.63
2023-10-06T17:14:15.005Z,63.57
2023-10-06T17:16:43.257Z,63.52
2023-10-06T17:19:13.275Z,63.62
2023-10-06T17:21:43.778Z,63.77
2023-10-06T17:24:13.832Z,63.84
2023-10-06T17:26:43.595Z,63.72
2023-10-06T17:29:13.131Z,63.61
2023-10-06T17:31:41.389Z,63.90
2023-10-06T17:34:09.520Z,63.70
2023-10-06T17:36:37.515Z,63.61
2023-10-06T17:39:06.461Z,63.74
2023-10-06T17:41:36.299Z,63.67
2023-10-06T17:44:05.060Z,64.03
2023-10-06T17:46:33.551Z,63.95
2023-10-06T17:49:01.531Z,64.10
2023-10-06T17:51:29.922Z,63.70
2023-10-06T17:53:57.810Z,63.96
2023-10-06T17:56:25.740Z,63.73
2023-10-06T17:58:55.125Z,64.26
2023-10-06T18:01:24.120Z,64.28
2023-10-06T18:03:52.216Z,64.11
2023-10-06T18:06:20.303Z,64.29
2023-10-06T18:08:50.264Z,64.50
2023-10-06T18:11:18.280Z,64.42
2023-10-06T18:13:46.364Z,64.47
2023-10-06T18:16:15.840Z,65.22
2023-10-06T18:18:43.909Z,65.18
2023-10-06T18:21:11.851Z,64.75
2023-10-06T18:23:39.769Z,65.23
2023-10-06T18:26:12.950Z,64.80
2023-10-06T18:28:41.815Z,65.49
2023-10-06T18:31:10.393Z,65.13
2023-10-06T18:33:39.787Z,65.10
2023-10-06T18:36:11.396Z,65.18
2023-10-06T18:38:39.882Z,65.65
2023-10-06T18:41:09.163Z,65.55
2023-10-06T18:43:37.224Z,65.35
2023-10-06T18:46:07.239Z,65.32
2023-10-06T18:48:35.443Z,65.79
2023-10-06T18:51:05.356Z,65.55
2023-10-06T18:53:36.059Z,65.57
2023-10-06T18:56:05.753Z,65.66
2023-10-06T18:58:33.698Z,66.04
2023-10-06T19:01:04.377Z,66.07
2023-10-06T19:03:32.854Z,65.90
2023-10-06T19:06:04.457Z,66.15
2023-10-06T19:08:37.843Z,65.77
2023-10-06T19:11:11.064Z,66.01
2023-10-06T19:13:39.329Z,66.16
2023-10-06T19:16:11.357Z,65.86
2023-10-06T19:18:39.945Z,66.35
2023-10-06T19:21:08.103Z,65.95
2023-10-06T19:23:39.005Z,65.99
2023-10-06T19:26:09.346Z,66.21
2023-10-06T19:28:37.730Z,66.24
2023-10-06T19:31:06.742Z,66.41
2023-10-06T19:33:35.211Z,66.40
2023-10-06T19:36:05.731Z,67.08
2023-10-06T19:38:34.349Z,67.02
2023-10-06T19:41:04.541Z,67.40
2023-10-06T19:43:34.157Z,67.78
2023-10-06T19:46:02.236Z,67.38
2023-10-06T19:48:30.085Z,67.94
2023-10-06T19:50:58.040Z,67.82
2023-10-06T19:53:26.172Z,68.05
2023-10-06T19:55:55.249Z,67.63
2023-10-06T19:58:24.709Z,68.27
2023-10-06T20:00:52.879Z,68.21
2023-10-06T20:03:21.079Z,68.57
2023-10-06T20:05:50.106Z,68.88
2023-10-06T20:08:18.089Z,68.88
2023-10-06T20:10:45.995Z,69.13
2023-10-06T20:13:14.092Z,68.91
2023-10-06T20:15:43.851Z,69.07
2023-10-06T20:18:14.364Z,69.64
2023-10-06T20:20:44.145Z,69.13
2023-10-06T20:23:12.048Z,69.24
2023-10-06T20:25:41.897Z,69.54
2023-10-06T20:28:11.138Z,70.15
2023-10-06T20:30:40.544Z,70.19
2023-10-06T20:33:10.176Z,71.00
2023-10-06T20:35:39.895Z,71.80
2023-10-06T20:38:08.000Z,71.60
2023-10-06T20:40:36.021Z,71.54
2023-10-06T20:43:08.013Z,71.30
2023-10-06T20:45:38.094Z,71.45
2023-10-06T20:48:07.579Z,71.85
2023-10-06T20:50:39.786Z,71.08
2023-10-06T20:53:08.895Z,71.34
2023-10-06T20:55:37.469Z,71.73
2023-10-06T20:58:05.929Z,71.76
2023-10-06T21:00:33.859Z,73.09
2023-10-06T21:03:02.771Z,73.88
2023-10-06T21:05:30.885Z,74.83
2023-10-06T21:08:00.185Z,76.45
2023-10-06T21:10:28.428Z,77.57
2023-10-06T21:12:56.580Z,78.89
2023-10-06T21:15:25.982Z,79.66
2023-10-06T21:17:55.915Z,80.63
2023-10-06T21:20:24.402Z,81.43
2023-10-06T21:22:52.624Z,82.02
2023-10-06T21:25:22.325Z,82.33
2023-10-06T21:27:50.313Z,82.45
2023-10-06T21:30:18.285Z,83.13
2023-10-06T21:32:46.967Z,83.22
2023-10-06T21:35:15.614Z,82.84
2023-10-06T21:37:46.074Z,83.73
2023-10-06T21:40:14.535Z,83.82
2023-10-06T21:42:44.306Z,84.15
2023-10-06T21:45:13.103Z,83.44
2023-10-06T21:47:41.135Z,84.04
2023-10-06T21:50:10.682Z,84.58
2023-10-06T21:52:41.772Z,84.85
2023-10-06T21:55:10.700Z,85.85
2023-10-06T21:57:39.511Z,85.63
2023-10-06T22:00:26.435Z,86.11
2023-10-06T22:02:55.262Z,86.49
2023-10-06T22:05:23.717Z,86.47
2023-10-06T22:07:52.028Z,86.76
2023-10-06T22:10:20.354Z,86.47
2023-10-06T22:12:50.073Z,87.16
2023-10-06T22:15:19.285Z,87.26
2023-10-06T22:17:48.302Z,87.51
2023-10-06T22:20:16.586Z,87.43
2023-10-06T22:22:44.667Z,86.98
2023-10-06T22:25:14.684Z,86.85
2023-10-06T22:27:43.956Z,86.41
2023-10-06T22:30:13.630Z,86.75
2023-10-06T22:32:43.314Z,85.73
2023-10-06T22:35:12.206Z,85.85
2023-10-06T22:37:40.091Z,85.90
2023-10-06T22:40:17.954Z,85.66
2023-10-06T22:42:48.835Z,85.39
2023-10-06T22:45:17.480Z,84.60
2023-10-06T22:47:49.618Z,84.78
2023-10-06T22:50:20.464Z,84.47
2023-10-06T22:52:49.829Z,84.49
2023-10-06T22:55:20.102Z,83.93
2023-10-06T22:57:50.051Z,83.93
2023-10-06T23:00:19.240Z,83.52
2023-10-06T23:02:49.624Z,83.19
2023-10-06T23:05:17.769Z,82.74
2023-10-06T23:07:48.262Z,83.08
2023-10-06T23:10:18.565Z,82.35
2023-10-06T23:12:50.604Z,82.19
2023-10-06T23:15:19.130Z,81.85
2023-10-06T23:17:50.588Z,82.24
2023-10-06T23:20:25.394Z,81.71
2023-10-06T23:22:56.000Z,81.98
2023-10-06T23:25:25.579Z,81.71
2023-10-06T23:27:54.168Z,81.18
2023-10-06T23:30:23.820Z,81.20
2023-10-06T23:32:53.339Z,80.77
2023-10-06T23:35:21.178Z,80.79
2023-10-06T23:37:56.185Z,79.92
2023-10-06T23:40:24.571Z,79.94
2023-10-06T23:42:53.599Z,79.39
2023-10-06T23:45:20.669Z,79.56
2023-10-06T23:47:49.286Z,79.22
2023-10-06T23:50:21.766Z,79.20
2023-10-06T23:52:52.778Z,78.60
2023-10-06T23:55:23.326Z,78.89
2023-10-06T23:57:52.151Z,78.08
